createdAt,value
2022-10-09T00:01:13.743Z,102590.69
2022-10-09T00:03:42.016Z,102601.13
2022-10-09T00:06:10.104Z,102583.00
2022-10-09T00:08:39.381Z,102593.41
2022-10-09T00:11:08.859Z,102594.34
2022-10-09T00:13:35.734Z,102602.16
2022-10-09T00:16:08.261Z,102594.34
2022-10-09T00:18:34.826Z,102594.44
2022-10-09T00:21:01.697Z,102589.28
2022-10-09T00:23:28.408Z,102595.47
2022-10-09T00:26:00.382Z,102592.88
2022-10-09T00:28:30.056Z,102596.34
2022-10-09T00:30:56.953Z,102592.06
2022-10-09T00:33:23.733Z,102587.91
2022-10-09T00:35:50.687Z,102597.47
2022-10-09T00:38:17.283Z,102597.47
2022-10-09T00:40:44.000Z,102588.88
2022-10-09T00:43:17.087Z,102588.03
2022-10-09T00:45:49.929Z,102590.63
2022-10-09T00:48:18.874Z,102584.63
2022-10-09T00:50:51.943Z,102587.28
2022-10-09T00:53:20.985Z,102589.00
2022-10-09T00:55:47.605Z,102582.97
2022-10-09T00:58:14.480Z,102582.97
2022-10-09T01:00:41.268Z,102590.81
2022-10-09T01:03:08.107Z,102591.69
2022-10-09T01:05:49.931Z,102591.78
2022-10-09T01:08:25.943Z,102590.03
2022-10-09T01:10:55.374Z,102597.00
2022-10-09T01:13:42.734Z,102596.13
2022-10-09T01:16:35.425Z,102588.44
2022-10-09T01:19:07.587Z,102589.25
2022-10-09T01:21:42.852Z,102583.19
2022-10-09T01:24:11.851Z,102586.78
2022-10-09T01:27:10.199Z,102590.22
2022-10-09T01:29:42.436Z,102573.03
2022-10-09T01:32:12.239Z,102571.31
2022-10-09T01:34:41.873Z,102575.63
2022-10-09T01:37:10.978Z,102567.00
2022-10-09T01:39:38.940Z,102571.38
2022-10-09T01:42:05.867Z,102564.53
2022-10-09T01:44:33.365Z,102561.00
2022-10-09T01:47:00.705Z,102561.94
2022-10-09T01:49:33.502Z,102554.25
2022-10-09T01:52:24.145Z,102555.97
2022-10-09T01:55:08.703Z,102556.81
2022-10-09T01:57:46.991Z,102555.16
2022-10-09T02:00:17.107Z,102556.94
2022-10-09T02:02:44.735Z,102550.06
2022-10-09T02:05:17.586Z,102551.81
2022-10-09T02:07:43.984Z,102550.03
2022-10-09T02:10:11.003Z,102550.03
2022-10-09T02:12:42.264Z,102549.16
2022-10-09T02:15:09.904Z,102540.59
2022-10-09T02:17:42.540Z,102526.78
2022-10-09T02:20:32.724Z,102531.94
2022-10-09T02:23:02.319Z,102522.59
2022-10-09T02:25:29.228Z,102524.38
2022-10-09T02:27:55.997Z,102526.13
2022-10-09T02:30:26.872Z,102526.06
2022-10-09T02:32:54.485Z,102527.00
2022-10-09T02:35:21.618Z,102522.75
2022-10-09T02:37:49.092Z,102521.94
2022-10-09T02:40:15.976Z,102524.56
2022-10-09T02:42:42.391Z,102522.91
2022-10-09T02:45:09.504Z,102522.09
2022-10-09T02:47:35.956Z,102519.50
2022-10-09T02:50:02.304Z,102528.25
2022-10-09T02:52:28.964Z,102530.88
2022-10-09T02:54:55.309Z,102525.69
2022-10-09T02:57:21.733Z,102528.34
2022-10-09T02:59:48.060Z,102523.16
2022-10-09T03:02:15.028Z,102520.59
2022-10-09T03:04:41.548Z,102524.09
2022-10-09T03:07:07.978Z,102524.16
2022-10-09T03:09:34.436Z,102521.56
2022-10-09T03:12:00.772Z,102519.09
2022-10-09T03:14:27.231Z,102528.63
2022-10-09T03:16:53.644Z,102520.84
2022-10-09T03:19:20.000Z,102518.41
2022-10-09T03:21:46.336Z,102519.22
2022-10-09T03:24:12.690Z,102513.13
2022-10-09T03:26:39.092Z,102519.25
2022-10-09T03:29:05.425Z,102519.22
2022-10-09T03:31:52.546Z,102515.78
2022-10-09T03:34:18.148Z,102511.53
2022-10-09T03:36:44.652Z,102516.66
2022-10-09T03:39:11.101Z,102511.47
2022-10-09T03:41:37.478Z,102514.97
2022-10-09T03:44:03.934Z,102507.22
2022-10-09T03:46:30.342Z,102513.28
2022-10-09T03:48:57.116Z,102509.00
2022-10-09T03:51:23.465Z,102512.47
2022-10-09T03:53:49.894Z,102504.72
2022-10-09T03:56:16.285Z,102509.97
2022-10-09T03:58:42.918Z,102508.25
2022-10-09T04:01:09.618Z,102514.34
2022-10-09T04:03:36.038Z,102517.84
2022-10-09T04:06:02.679Z,102527.41
2022-10-09T04:08:29.079Z,102517.03
2022-10-09T04:10:59.578Z,102533.41
2022-10-09T04:13:26.240Z,102530.81
2022-10-09T04:15:53.997Z,102524.72
2022-10-09T04:18:20.531Z,102529.06
2022-10-09T04:20:51.191Z,102536.84
2022-10-09T04:23:22.720Z,102534.25
2022-10-09T04:25:55.823Z,102528.22
2022-10-09T04:28:23.369Z,102530.03
2022-10-09T04:30:50.076Z,102521.34
2022-10-09T04:33:16.577Z,102523.94
2022-10-09T04:35:43.704Z,102516.16
2022-10-09T04:38:10.384Z,102517.84
2022-10-09T04:40:37.027Z,102515.31
2022-10-09T04:43:03.703Z,102510.16
2022-10-09T04:45:30.065Z,102513.66
2022-10-09T04:47:56.537Z,102504.13
2022-10-09T04:50:23.139Z,102503.34
2022-10-09T04:52:50.058Z,102508.53
2022-10-09T04:55:16.771Z,102503.41
2022-10-09T04:57:43.204Z,102512.03
2022-10-09T05:00:10.243Z,102505.13
2022-10-09T05:02:36.738Z,102503.44
2022-10-09T05:05:03.270Z,102506.03
2022-10-09T05:07:29.695Z,102505.19
2022-10-09T05:09:56.032Z,102507.78
2022-10-09T05:12:22.394Z,102502.66
2022-10-09T05:14:48.781Z,102502.72
2022-10-09T05:17:15.696Z,102495.78
2022-10-09T05:19:43.545Z,102488.91
2022-10-09T05:22:09.899Z,102488.09
2022-10-09T05:24:36.221Z,102492.41
2022-10-09T05:27:02.606Z,102496.75
2022-10-09T05:29:28.942Z,102492.47
2022-10-09T05:31:55.346Z,102496.81
2022-10-09T05:34:21.762Z,102490.75
2022-10-09T05:36:48.080Z,102490.81
2022-10-09T05:39:14.535Z,102492.56
2022-10-09T05:41:40.852Z,102489.13
2022-10-09T05:44:07.263Z,102492.56
2022-10-09T05:46:33.781Z,102498.66
2022-10-09T05:49:05.158Z,102491.72
2022-10-09T05:51:33.959Z,102494.31
2022-10-09T05:54:04.023Z,102490.94
2022-10-09T05:56:33.050Z,102499.63
2022-10-09T05:59:01.983Z,102499.69
2022-10-09T06:01:31.690Z,102495.34
2022-10-09T06:03:59.821Z,102501.38
2022-10-09T06:06:29.040Z,102501.38
2022-10-09T06:08:55.846Z,102499.63
2022-10-09T06:11:31.545Z,102507.34
2022-10-09T06:14:00.201Z,102503.06
2022-10-09T06:16:29.716Z,102510.91
2022-10-09T06:18:56.892Z,102513.53
2022-10-09T06:21:23.967Z,102515.28
2022-10-09T06:23:56.295Z,102515.22
2022-10-09T06:26:24.318Z,102517.78
2022-10-09T06:28:51.253Z,102519.53
2022-10-09T06:31:20.421Z,102521.25
2022-10-09T06:33:48.730Z,102518.66
2022-10-09T06:36:19.670Z,102524.69
2022-10-09T06:38:46.894Z,102522.09
2022-10-09T06:41:18.791Z,102521.22
2022-10-09T06:43:50.746Z,102515.97
2022-10-09T06:46:18.160Z,102511.66
2022-10-09T06:48:44.538Z,102515.91
2022-10-09T06:51:15.990Z,102511.53
2022-10-09T06:53:50.871Z,102520.94
2022-10-09T06:56:18.490Z,102520.94
2022-10-09T06:58:45.781Z,102518.28
2022-10-09T07:01:18.500Z,102522.50
2022-10-09T07:03:47.941Z,102528.47
2022-10-09T07:06:20.769Z,102519.81
2022-10-09T07:08:52.994Z,102522.34
2022-10-09T07:11:22.759Z,102526.59
2022-10-09T07:13:51.784Z,102525.69
2022-10-09T07:16:24.064Z,102524.75
2022-10-09T07:18:51.055Z,102528.13
2022-10-09T07:21:17.796Z,102515.97
2022-10-09T07:23:44.443Z,102525.44
2022-10-09T07:26:17.545Z,102516.63
2022-10-09T07:28:45.199Z,102517.38
2022-10-09T07:31:12.225Z,102525.94
2022-10-09T07:33:39.070Z,102519.88
2022-10-09T07:36:06.819Z,102526.63
2022-10-09T07:38:33.214Z,102531.69
2022-10-09T07:41:08.018Z,102516.78
2022-10-09T07:43:35.716Z,102526.94
2022-10-09T07:46:04.176Z,102532.88
2022-10-09T07:48:30.936Z,102514.50
2022-10-09T07:50:57.495Z,102518.53
2022-10-09T07:53:23.971Z,102524.31
2022-10-09T07:55:50.549Z,102518.91
2022-10-09T07:58:17.844Z,102513.44
2022-10-09T08:00:44.320Z,102514.03
2022-10-09T08:03:11.140Z,102514.88
2022-10-09T08:05:37.684Z,102515.50
2022-10-09T08:08:04.049Z,102514.41
2022-10-09T08:10:31.543Z,102515.94
2022-10-09T08:12:58.034Z,102518.41
2022-10-09T08:15:24.884Z,102513.09
2022-10-09T08:17:54.974Z,102503.44
2022-10-09T08:20:21.486Z,102506.69
2022-10-09T08:22:48.323Z,102503.78
2022-10-09T08:25:14.972Z,102508.88
2022-10-09T08:27:41.308Z,102502.56
2022-10-09T08:30:08.506Z,102506.72
2022-10-09T08:32:34.884Z,102509.16
2022-10-09T08:35:01.263Z,102507.25
2022-10-09T08:37:27.607Z,102495.72
2022-10-09T08:39:53.948Z,102496.53
2022-10-09T08:42:39.168Z,102493.59
2022-10-09T08:45:12.789Z,102484.59
2022-10-09T08:47:50.518Z,102479.00
2022-10-09T08:50:24.005Z,102474.53
2022-10-09T08:53:08.315Z,102476.66
2022-10-09T08:55:51.053Z,102482.28
2022-10-09T08:58:20.303Z,102474.13
2022-10-09T09:00:55.049Z,102470.53
2022-10-09T09:03:43.647Z,102473.84
2022-10-09T09:06:17.803Z,102470.19
2022-10-09T09:09:02.107Z,102463.72
2022-10-09T09:11:44.889Z,102466.84
2022-10-09T09:14:35.977Z,102463.84
2022-10-09T09:17:14.458Z,102456.56
2022-10-09T09:19:48.901Z,102453.59
2022-10-09T09:22:16.166Z,102456.03
2022-10-09T09:24:51.125Z,102454.91
2022-10-09T09:27:20.073Z,102450.13
2022-10-09T09:29:54.466Z,102442.94
2022-10-09T09:32:23.499Z,102436.75
2022-10-09T09:34:50.215Z,102446.06
2022-10-09T09:37:17.065Z,102444.25
2022-10-09T09:40:31.374Z,102437.97
2022-10-09T09:42:30.300Z,102426.31
2022-10-09T09:45:04.030Z,102431.81
2022-10-09T09:47:38.849Z,102427.94
2022-10-09T09:50:06.273Z,102423.72
2022-10-09T09:52:38.585Z,102424.06
2022-10-09T09:55:05.890Z,102413.25
2022-10-09T09:57:37.156Z,102412.06
2022-10-09T10:00:15.812Z,102410.19
2022-10-09T10:02:42.383Z,102403.84
2022-10-09T10:05:24.771Z,102404.00
2022-10-09T10:07:51.709Z,102402.78
2022-10-09T10:10:29.095Z,102397.34
2022-10-09T10:12:59.098Z,102400.31
2022-10-09T10:15:28.501Z,102393.81
2022-10-09T10:18:03.579Z,102391.78
2022-10-09T10:20:33.786Z,102397.75
2022-10-09T10:23:00.949Z,102385.28
2022-10-09T10:25:32.526Z,102385.16
2022-10-09T10:28:18.069Z,102381.41
2022-10-09T10:30:45.619Z,102375.13
2022-10-09T10:33:29.298Z,102375.78
2022-10-09T10:35:58.207Z,102372.22
2022-10-09T10:38:42.472Z,102362.28
2022-10-09T10:41:09.044Z,102361.28
2022-10-09T10:43:38.713Z,102360.22
2022-10-09T10:46:25.361Z,102361.47
2022-10-09T10:48:52.339Z,102356.63
2022-10-09T10:51:34.055Z,102352.81
2022-10-09T10:54:28.216Z,102340.38
2022-10-09T10:57:08.762Z,102336.72
2022-10-09T10:59:41.974Z,102339.97
2022-10-09T11:02:32.478Z,102331.78
2022-10-09T11:05:18.123Z,102338.19
2022-10-09T11:07:59.791Z,102331.09
2022-10-09T11:11:07.334Z,102324.97
2022-10-09T11:13:50.448Z,102315.34
2022-10-09T11:16:45.571Z,102311.56
2022-10-09T11:19:56.790Z,102308.03
2022-10-09T11:23:05.196Z,102300.22
2022-10-09T11:25:53.614Z,102296.69
2022-10-09T11:28:28.511Z,102296.88
2022-10-09T11:31:10.197Z,102292.09
2022-10-09T11:33:41.557Z,102278.81
2022-10-09T11:36:18.565Z,102280.50
2022-10-09T11:39:23.782Z,102275.97
2022-10-09T11:41:53.421Z,102268.00
2022-10-09T11:44:22.773Z,102266.53
2022-10-09T11:47:21.603Z,102263.59
2022-10-09T11:49:57.251Z,102263.66
2022-10-09T11:52:38.599Z,102246.63
2022-10-09T11:55:26.624Z,102245.09
2022-10-09T11:57:53.476Z,102245.66
2022-10-09T12:00:33.226Z,102239.78
2022-10-09T12:03:03.294Z,102228.91
2022-10-09T12:05:35.960Z,102227.31
2022-10-09T12:08:18.295Z,102215.81
2022-10-09T12:10:53.547Z,102209.13
2022-10-09T12:13:36.833Z,102206.84
2022-10-09T12:16:03.868Z,102195.97
2022-10-09T12:18:34.728Z,102196.66
2022-10-09T12:21:06.881Z,102193.00
2022-10-09T12:23:37.309Z,102186.13
2022-10-09T12:26:04.638Z,102180.63
2022-10-09T12:28:44.696Z,102171.72
2022-10-09T12:31:25.847Z,102161.13
2022-10-09T12:33:57.521Z,102163.84
2022-10-09T12:36:30.009Z,102157.56
2022-10-09T12:38:56.640Z,102155.00
2022-10-09T12:41:32.202Z,102145.44
2022-10-09T12:43:59.539Z,102143.72
2022-10-09T12:46:31.812Z,102142.03
2022-10-09T12:49:01.079Z,102133.00
2022-10-09T12:51:30.081Z,102121.97
2022-10-09T12:53:57.104Z,102131.72
2022-10-09T12:56:38.092Z,102117.63
2022-10-09T12:59:07.085Z,102112.97
2022-10-09T13:01:35.089Z,102108.56
2022-10-09T13:04:04.996Z,102109.91
2022-10-09T13:06:44.662Z,102106.09
2022-10-09T13:09:34.118Z,102096.84
2022-10-09T13:12:16.156Z,102092.28
2022-10-09T13:14:46.092Z,102092.19
2022-10-09T13:20:18.638Z,102084.06
2022-10-09T13:22:56.320Z,102069.00
2022-10-09T13:25:39.447Z,102064.28
2022-10-09T13:28:06.429Z,102064.59
2022-10-09T13:30:33.580Z,102054.19
2022-10-09T13:33:00.173Z,102056.78
2022-10-09T13:35:26.636Z,102050.16
2022-10-09T13:37:53.219Z,102047.78
2022-10-09T13:40:21.730Z,102046.44
2022-10-09T13:42:55.673Z,102036.19
2022-10-09T13:45:22.856Z,102028.53
2022-10-09T13:47:49.546Z,102029.41
2022-10-09T13:50:17.839Z,102033.91
2022-10-09T13:52:44.291Z,102027.56
2022-10-09T13:55:11.155Z,102027.44
2022-10-09T13:57:37.970Z,102025.84
2022-10-09T14:00:06.383Z,102027.78
2022-10-09T14:02:32.852Z,102021.88
2022-10-09T14:04:59.348Z,102020.09
2022-10-09T14:07:25.873Z,102015.59
2022-10-09T14:09:52.359Z,102010.41
2022-10-09T14:12:18.812Z,102013.81
2022-10-09T14:14:45.223Z,102005.09
2022-10-09T14:17:11.687Z,102000.69
2022-10-09T14:19:38.160Z,101991.00
2022-10-09T14:22:04.551Z,101982.28
2022-10-09T14:24:31.002Z,101989.91
2022-10-09T14:26:57.526Z,101982.03
2022-10-09T14:29:24.070Z,101976.97
2022-10-09T14:31:53.874Z,101974.25
2022-10-09T14:34:20.517Z,101976.00
2022-10-09T14:36:47.191Z,101959.50
2022-10-09T14:39:13.606Z,101963.75
2022-10-09T14:41:40.776Z,101954.34
2022-10-09T14:44:09.566Z,101951.81
2022-10-09T14:46:37.830Z,101950.78
2022-10-09T14:49:07.460Z,101952.63
2022-10-09T14:51:37.125Z,101949.16
2022-10-09T14:54:04.560Z,101942.06
2022-10-09T14:56:31.115Z,101938.66
2022-10-09T14:59:00.537Z,101932.56
2022-10-09T15:01:28.022Z,101929.28
2022-10-09T15:03:54.557Z,101922.22
2022-10-09T15:06:24.893Z,101926.72
2022-10-09T15:08:55.288Z,101922.41
2022-10-09T15:11:22.097Z,101916.56
2022-10-09T15:13:48.570Z,101922.75
2022-10-09T15:16:18.260Z,101921.03
2022-10-09T15:18:45.425Z,101915.91
2022-10-09T15:21:15.020Z,101905.47
2022-10-09T15:23:41.798Z,101907.34
2022-10-09T15:26:08.785Z,101902.44
2022-10-09T15:28:39.842Z,101898.03
2022-10-09T15:31:14.779Z,101892.78
2022-10-09T15:33:41.245Z,101883.28
2022-10-09T15:36:07.642Z,101887.03
2022-10-09T15:38:34.140Z,101883.56
2022-10-09T15:41:00.507Z,101881.28
2022-10-09T15:43:27.348Z,101876.97
2022-10-09T15:46:02.522Z,101881.28
2022-10-09T15:48:29.290Z,101868.34
2022-10-09T15:50:55.908Z,101868.34
2022-10-09T15:53:24.582Z,101861.31
2022-10-09T15:55:52.981Z,101857.91
2022-10-09T15:58:20.394Z,101858.84
2022-10-09T16:00:49.554Z,101854.72
2022-10-09T16:03:18.928Z,101846.13
2022-10-09T16:05:48.909Z,101840.97
2022-10-09T16:08:17.544Z,101835.91
2022-10-09T16:10:49.053Z,101837.91
2022-10-09T16:13:16.217Z,101826.75
2022-10-09T16:15:43.860Z,101840.72
2022-10-09T16:18:11.207Z,101839.97
2022-10-09T16:20:38.831Z,101835.03
2022-10-09T16:23:06.457Z,101828.97
2022-10-09T16:25:33.767Z,101828.28
2022-10-09T16:28:06.167Z,101825.06
2022-10-09T16:30:33.614Z,101827.84
2022-10-09T16:33:00.030Z,101819.41
2022-10-09T16:35:28.753Z,101819.47
2022-10-09T16:38:00.549Z,101820.50
2022-10-09T16:40:56.870Z,101826.00
2022-10-09T16:43:14.094Z,101819.13
2022-10-09T16:45:44.096Z,101819.28
2022-10-09T16:48:10.662Z,101819.53
2022-10-09T16:50:42.276Z,101819.81
2022-10-09T16:53:09.211Z,101828.06
2022-10-09T16:55:35.922Z,101820.38
2022-10-09T16:58:02.345Z,101822.44
2022-10-09T17:00:28.984Z,101818.28
2022-10-09T17:02:55.598Z,101823.78
2022-10-09T17:05:21.984Z,101817.88
2022-10-09T17:07:48.623Z,101819.09
2022-10-09T17:10:15.427Z,101820.97
2022-10-09T17:12:42.280Z,101815.19
2022-10-09T17:15:08.790Z,101809.38
2022-10-09T17:17:35.115Z,101808.94
2022-10-09T17:20:01.593Z,101813.34
2022-10-09T17:22:27.976Z,101816.97
2022-10-09T17:24:54.497Z,101815.50
2022-10-09T17:27:20.994Z,101812.50
2022-10-09T17:29:47.438Z,101810.81
2022-10-09T17:32:13.867Z,101812.06
2022-10-09T17:34:45.740Z,101812.81
2022-10-09T17:37:13.130Z,101812.25
2022-10-09T17:39:39.963Z,101807.91
2022-10-09T17:42:06.388Z,101801.13
2022-10-09T17:44:32.759Z,101803.97
2022-10-09T17:47:00.722Z,101803.41
2022-10-09T17:49:27.610Z,101801.78
2022-10-09T17:51:54.510Z,101799.09
2022-10-09T17:54:21.351Z,101796.78
2022-10-09T17:56:47.747Z,101795.78
2022-10-09T17:59:17.251Z,101790.72
2022-10-09T18:01:44.005Z,101788.16
2022-10-09T18:04:15.860Z,101782.94
2022-10-09T18:06:42.411Z,101785.72
2022-10-09T18:09:08.973Z,101784.31
2022-10-09T18:11:35.406Z,101779.94
2022-10-09T18:14:01.993Z,101770.69
2022-10-09T18:16:36.323Z,101776.84
2022-10-09T18:19:12.105Z,101776.31
2022-10-09T18:21:41.589Z,101775.59
2022-10-09T18:24:08.070Z,101773.22
2022-10-09T18:26:34.524Z,101773.09
2022-10-09T18:29:01.647Z,101765.00
2022-10-09T18:31:28.520Z,101765.94
2022-10-09T18:33:54.947Z,101764.38
2022-10-09T18:36:24.189Z,101761.00
2022-10-09T18:38:53.826Z,101760.16
2022-10-09T18:41:22.506Z,101760.50
2022-10-09T18:43:49.991Z,101755.34
2022-10-09T18:46:17.703Z,101749.44
2022-10-09T18:48:44.826Z,101750.47
2022-10-09T18:51:15.696Z,101758.44
2022-10-09T18:53:45.282Z,101755.31
2022-10-09T18:56:12.293Z,101757.53
2022-10-09T18:58:41.934Z,101755.25
2022-10-09T19:01:08.621Z,101755.75
2022-10-09T19:03:36.719Z,101752.16
2022-10-09T19:06:04.249Z,101749.53
2022-10-09T19:08:30.670Z,101748.13
2022-10-09T19:10:57.065Z,101751.75
2022-10-09T19:13:23.460Z,101746.44
2022-10-09T19:15:54.832Z,101750.25
2022-10-09T19:18:22.117Z,101743.44
2022-10-09T19:20:48.729Z,101735.00
2022-10-09T19:23:15.738Z,101735.31
2022-10-09T19:25:49.365Z,101732.78
2022-10-09T19:28:16.161Z,101733.69
2022-10-09T19:30:43.459Z,101741.78
2022-10-09T19:33:10.367Z,101727.97
2022-10-09T19:35:45.944Z,101729.72
2022-10-09T19:38:13.086Z,101728.94
2022-10-09T19:40:39.632Z,101724.19
2022-10-09T19:43:05.994Z,101723.28
2022-10-09T19:45:32.712Z,101720.03
2022-10-09T19:47:59.666Z,101718.25
2022-10-09T19:50:26.259Z,101714.22
2022-10-09T19:52:52.588Z,101709.78
2022-10-09T19:55:18.987Z,101709.75
2022-10-09T19:57:45.479Z,101708.09
2022-10-09T20:00:12.329Z,101697.78
2022-10-09T20:02:38.795Z,101704.16
2022-10-09T20:05:05.653Z,101700.88
2022-10-09T20:07:32.073Z,101696.53
2022-10-09T20:09:58.842Z,101698.47
2022-10-09T20:12:25.351Z,101694.19
2022-10-09T20:14:51.715Z,101687.50
2022-10-09T20:17:18.144Z,101681.44
2022-10-09T20:19:45.784Z,101674.56
2022-10-09T20:22:12.284Z,101666.91
2022-10-09T20:24:38.900Z,101665.25
2022-10-09T20:27:05.287Z,101670.38
2022-10-09T20:29:31.698Z,101674.00
2022-10-09T20:31:58.315Z,101675.94
2022-10-09T20:34:26.899Z,101670.81
2022-10-09T20:36:53.819Z,101670.19
2022-10-09T20:39:21.349Z,101671.06
2022-10-09T20:41:48.332Z,101674.66
2022-10-09T20:44:15.292Z,101671.22
2022-10-09T20:46:41.793Z,101667.97
2022-10-09T20:49:11.952Z,101661.88
2022-10-09T20:51:39.189Z,101653.34
2022-10-09T20:54:06.796Z,101662.13
2022-10-09T20:56:34.106Z,101654.06
2022-10-09T20:59:01.435Z,101656.03
2022-10-09T21:01:28.738Z,101638.88
2022-10-09T21:03:57.104Z,101634.38
2022-10-09T21:06:23.872Z,101629.38
2022-10-09T21:08:50.747Z,101636.47
2022-10-09T21:11:18.440Z,101636.59
2022-10-09T21:13:46.458Z,101640.03
2022-10-09T21:16:16.461Z,101634.00
2022-10-09T21:18:43.378Z,101629.88
2022-10-09T21:21:16.662Z,101630.84
2022-10-09T21:23:44.777Z,101624.91
2022-10-09T21:26:13.988Z,101628.59
2022-10-09T21:28:40.622Z,101625.28
2022-10-09T21:31:11.647Z,101620.09
2022-10-09T21:33:38.135Z,101617.72
2022-10-09T21:36:11.136Z,101611.47
2022-10-09T21:38:37.975Z,101610.81
2022-10-09T21:41:04.585Z,101603.78
2022-10-09T21:43:30.983Z,101603.72
2022-10-09T21:45:57.322Z,101604.66
2022-10-09T21:48:23.708Z,101609.91
2022-10-09T21:50:50.126Z,101606.50
2022-10-09T21:53:16.496Z,101611.91
2022-10-09T21:55:42.927Z,101605.84
2022-10-09T21:58:10.357Z,101608.38
2022-10-09T22:00:36.844Z,101599.88
2022-10-09T22:03:03.502Z,101607.78
2022-10-09T22:05:29.881Z,101599.25
2022-10-09T22:07:56.662Z,101592.41
2022-10-09T22:10:23.123Z,101599.44
2022-10-09T22:12:49.870Z,101593.31
2022-10-09T22:15:16.906Z,101599.66
2022-10-09T22:17:43.321Z,101590.28
2022-10-09T22:20:09.920Z,101587.75
2022-10-09T22:22:36.645Z,101587.03
2022-10-09T22:25:03.305Z,101586.22
2022-10-09T22:27:29.709Z,101590.59
2022-10-09T22:29:56.216Z,101584.72
2022-10-09T22:32:22.790Z,101586.66
2022-10-09T22:34:54.151Z,101591.13
2022-10-09T22:37:21.121Z,101583.31
2022-10-09T22:39:49.004Z,101577.28
2022-10-09T22:42:15.771Z,101581.56
2022-10-09T22:44:43.084Z,101570.44
2022-10-09T22:47:09.734Z,101573.00
2022-10-09T22:49:36.246Z,101569.47
2022-10-09T22:52:02.649Z,101568.66
2022-10-09T22:54:29.077Z,101571.28
2022-10-09T22:56:55.803Z,101567.94
2022-10-09T22:59:22.411Z,101565.22
2022-10-09T23:01:53.294Z,101561.78
2022-10-09T23:04:21.497Z,101560.13
2022-10-09T23:06:56.600Z,101555.84
2022-10-09T23:09:25.312Z,101556.72
2022-10-09T23:11:51.873Z,101547.31
2022-10-09T23:14:19.325Z,101543.91
2022-10-09T23:16:45.875Z,101544.69
2022-10-09T23:19:12.894Z,101533.59
2022-10-09T23:21:41.561Z,101544.75
2022-10-09T23:24:10.455Z,101537.06
2022-10-09T23:26:38.404Z,101538.03
2022-10-09T23:29:08.430Z,101536.28
2022-10-09T23:31:35.626Z,101531.91
2022-10-09T23:34:03.544Z,101531.88
2022-10-09T23:36:30.212Z,101527.50
2022-10-09T23:38:58.365Z,101527.50
2022-10-09T23:41:27.002Z,101525.81
2022-10-09T23:43:54.427Z,101527.63
2022-10-09T23:46:23.771Z,101516.50
2022-10-09T23:48:51.959Z,101523.56
2022-10-09T23:51:20.160Z,101516.72
2022-10-09T23:53:47.416Z,101511.47
2022-10-09T23:56:18.829Z,101507.06
2022-10-09T23:58:46.222Z,101503.63
